sensor_id;sensor_type;location;lat;lon;timestamp;pressure;altitude;pressure_sealevel;temperature;humidity
50790;BME280;37287;47.554;7.844;2022-08-16T17:35:08;96990.78;;;30.58;26.49
50790;BME280;37287;47.554;7.844;2022-08-16T17:37:55;96989.03;;;30.42;26.69
50790;BME280;37287;47.554;7.844;2022-08-16T17:40:26;96987.94;;;30.31;25.75
50790;BME280;37287;47.554;7.844;2022-08-16T17:43:14;96991.50;;;30.13;25.46
50790;BME280;37287;47.554;7.844;2022-08-16T17:45:42;96989.75;;;30.10;26.15
50790;BME280;37287;47.554;7.844;2022-08-16T17:48:08;96995.88;;;30.08;25.96
50790;BME280;37287;47.554;7.844;2022-08-16T17:50:35;96992.63;;;30.04;25.93
50790;BME280;37287;47.554;7.844;2022-08-16T17:53:02;96997.41;;;29.90;25.97
50790;BME280;37287;47.554;7.844;2022-08-16T17:55:31;96997.59;;;29.73;25.97
50790;BME280;37287;47.554;7.844;2022-08-16T17:58:21;96995.72;;;29.43;27.09
50790;BME280;37287;47.554;7.844;2022-08-16T18:00:54;97001.53;;;29.21;28.38
50790;BME280;37287;47.554;7.844;2022-08-16T18:03:26;97003.81;;;28.97;27.94
50790;BME280;37287;47.554;7.844;2022-08-16T18:06:13;97003.72;;;28.78;28.93
50790;BME280;37287;47.554;7.844;2022-08-16T18:08:42;97006.94;;;28.58;29.34
50790;BME280;37287;47.554;7.844;2022-08-16T18:11:08;97008.63;;;28.36;30.04
50790;BME280;37287;47.554;7.844;2022-08-16T18:13:37;97007.03;;;28.10;31.91
50790;BME280;37287;47.554;7.844;2022-08-16T18:16:09;97004.41;;;27.82;32.64
50790;BME280;37287;47.554;7.844;2022-08-16T18:18:35;97007.84;;;27.52;33.86
50790;BME280;37287;47.554;7.844;2022-08-16T18:21:02;97009.19;;;27.17;34.40
50790;BME280;37287;47.554;7.844;2022-08-16T18:23:46;97011.28;;;26.88;34.81
50790;BME280;37287;47.554;7.844;2022-08-16T18:26:13;97005.97;;;26.62;35.18
50790;BME280;37287;47.554;7.844;2022-08-16T18:28:39;97006.50;;;26.38;35.51
50790;BME280;37287;47.554;7.844;2022-08-16T18:31:07;97007.75;;;26.14;35.99
50790;BME280;37287;47.554;7.844;2022-08-16T18:33:34;97007.44;;;25.95;36.30
50790;BME280;37287;47.554;7.844;2022-08-16T18:36:09;97001.34;;;25.80;36.35
50790;BME280;37287;47.554;7.844;2022-08-16T18:38:46;97007.13;;;25.65;36.47
50790;BME280;37287;47.554;7.844;2022-08-16T18:41:16;97014.38;;;25.51;36.40
50790;BME280;37287;47.554;7.844;2022-08-16T18:43:43;97015.31;;;25.36;36.94
50790;BME280;37287;47.554;7.844;2022-08-16T18:46:29;97008.66;;;25.17;37.72
50790;BME280;37287;47.554;7.844;2022-08-16T18:48:56;97004.78;;;25.03;37.32
50790;BME280;37287;47.554;7.844;2022-08-16T18:51:22;97007.00;;;24.93;37.84
50790;BME280;37287;47.554;7.844;2022-08-16T18:53:50;97013.50;;;24.84;38.10
50790;BME280;37287;47.554;7.844;2022-08-16T18:56:17;97007.66;;;24.77;37.98
50790;BME280;37287;47.554;7.844;2022-08-16T18:58:43;97007.06;;;24.67;38.23
50790;BME280;37287;47.554;7.844;2022-08-16T19:01:10;97006.75;;;24.59;38.45
50790;BME280;37287;47.554;7.844;2022-08-16T19:03:36;97021.00;;;24.46;38.40
50790;BME280;37287;47.554;7.844;2022-08-16T19:06:04;97019.91;;;24.38;38.82
50790;BME280;37287;47.554;7.844;2022-08-16T19:08:36;97026.38;;;24.29;39.02
50790;BME280;37287;47.554;7.844;2022-08-16T19:11:03;97027.06;;;24.24;39.02
50790;BME280;37287;47.554;7.844;2022-08-16T19:13:34;97034.81;;;24.20;39.49
50790;BME280;37287;47.554;7.844;2022-08-16T19:16:01;97036.56;;;24.17;39.24
50790;BME280;37287;47.554;7.844;2022-08-16T19:18:28;97040.31;;;24.14;39.18
50790;BME280;37287;47.554;7.844;2022-08-16T19:21:02;97037.53;;;24.14;39.00
50790;BME280;37287;47.554;7.844;2022-08-16T19:23:29;97045.84;;;24.14;39.54
50790;BME280;37287;47.554;7.844;2022-08-16T19:25:58;97043.03;;;24.09;39.19
50790;BME280;37287;47.554;7.844;2022-08-16T19:28:26;97044.00;;;24.06;39.58
50790;BME280;37287;47.554;7.844;2022-08-16T19:31:14;97055.50;;;23.98;40.12
50790;BME280;37287;47.554;7.844;2022-08-16T19:33:41;97058.78;;;23.82;40.43
50790;BME280;37287;47.554;7.844;2022-08-16T19:36:20;97068.13;;;23.64;40.90
50790;BME280;37287;47.554;7.844;2022-08-16T19:38:58;97059.91;;;23.49;41.41
50790;BME280;37287;47.554;7.844;2022-08-16T19:41:31;97059.75;;;23.38;41.83
50790;BME280;37287;47.554;7.844;2022-08-16T19:43:57;97059.41;;;23.30;41.99
50790;BME280;37287;47.554;7.844;2022-08-16T19:46:24;97063.13;;;23.27;42.57
50790;BME280;37287;47.554;7.844;2022-08-16T19:48:50;97064.09;;;23.24;42.88
50790;BME280;37287;47.554;7.844;2022-08-16T19:51:17;97067.81;;;23.21;43.05
50790;BME280;37287;47.554;7.844;2022-08-16T19:53:43;97074.50;;;23.14;43.56
50790;BME280;37287;47.554;7.844;2022-08-16T19:56:10;97074.31;;;23.02;43.85
50790;BME280;37287;47.554;7.844;2022-08-16T19:58:36;97077.38;;;22.90;44.28
50790;BME280;37287;47.554;7.844;2022-08-16T20:01:24;97070.63;;;22.76;45.35
50790;BME280;37287;47.554;7.844;2022-08-16T20:03:50;97075.69;;;22.62;46.67
50790;BME280;37287;47.554;7.844;2022-08-16T20:06:17;97081.03;;;22.51;47.38
50790;BME280;37287;47.554;7.844;2022-08-16T20:09:03;97076.56;;;22.39;48.25
50790;BME280;37287;47.554;7.844;2022-08-16T20:11:29;97081.63;;;22.31;48.24
50790;BME280;37287;47.554;7.844;2022-08-16T20:13:56;97074.13;;;22.16;48.92
50790;BME280;37287;47.554;7.844;2022-08-16T20:16:22;97074.78;;;22.11;48.66
50790;BME280;37287;47.554;7.844;2022-08-16T20:18:49;97080.97;;;22.06;48.42
50790;BME280;37287;47.554;7.844;2022-08-16T20:21:16;97086.41;;;21.91;49.20
50790;BME280;37287;47.554;7.844;2022-08-16T20:23:43;97086.97;;;21.80;48.99
50790;BME280;37287;47.554;7.844;2022-08-16T20:26:09;97085.69;;;21.67;49.30
50790;BME280;37287;47.554;7.844;2022-08-16T20:28:36;97091.72;;;21.56;49.62
50790;BME280;37287;47.554;7.844;2022-08-16T20:31:19;97087.75;;;21.47;50.21
50790;BME280;37287;47.554;7.844;2022-08-16T20:33:46;97081.69;;;21.43;50.39
50790;BME280;37287;47.554;7.844;2022-08-16T20:36:12;97085.56;;;21.37;50.46
50790;BME280;37287;47.554;7.844;2022-08-16T20:38:42;97084.25;;;21.23;50.75
50790;BME280;37287;47.554;7.844;2022-08-16T20:41:11;97079.84;;;21.16;51.45
50790;BME280;37287;47.554;7.844;2022-08-16T20:43:37;97085.22;;;21.10;51.26
50790;BME280;37287;47.554;7.844;2022-08-16T20:46:04;97092.13;;;21.06;51.17
50790;BME280;37287;47.554;7.844;2022-08-16T20:48:30;97093.06;;;21.03;51.09
50790;BME280;37287;47.554;7.844;2022-08-16T20:50:57;97090.00;;;21.01;51.65
50790;BME280;37287;47.554;7.844;2022-08-16T20:53:23;97089.25;;;21.00;51.57
50790;BME280;37287;47.554;7.844;2022-08-16T20:55:50;97097.84;;;20.93;51.45
50790;BME280;37287;47.554;7.844;2022-08-16T20:58:16;97102.72;;;20.89;52.10
50790;BME280;37287;47.554;7.844;2022-08-16T21:00:43;97097.09;;;20.83;52.61
50790;BME280;37287;47.554;7.844;2022-08-16T21:03:11;97103.69;;;20.76;53.21
50790;BME280;37287;47.554;7.844;2022-08-16T21:05:37;97105.53;;;20.70;53.37
50790;BME280;37287;47.554;7.844;2022-08-16T21:08:04;97103.38;;;20.65;54.14
50790;BME280;37287;47.554;7.844;2022-08-16T21:10:50;97107.66;;;20.57;53.94
50790;BME280;37287;47.554;7.844;2022-08-16T21:13:17;97116.56;;;20.52;54.35
50790;BME280;37287;47.554;7.844;2022-08-16T21:18:12;97115.03;;;20.41;55.07
50790;BME280;37287;47.554;7.844;2022-08-16T21:20:39;97125.44;;;20.37;55.67
50790;BME280;37287;47.554;7.844;2022-08-16T21:23:06;97131.22;;;20.30;56.60
50790;BME280;37287;47.554;7.844;2022-08-16T21:25:35;97128.78;;;20.23;56.99
50790;BME280;37287;47.554;7.844;2022-08-16T21:28:11;97131.56;;;20.14;57.66
50790;BME280;37287;47.554;7.844;2022-08-16T21:30:58;97119.94;;;20.09;59.14
50790;BME280;37287;47.554;7.844;2022-08-16T21:33:24;97119.03;;;20.03;60.26
50790;BME280;37287;47.554;7.844;2022-08-16T21:35:51;97125.44;;;20.00;60.91
50790;BME280;37287;47.554;7.844;2022-08-16T21:38:18;97122.84;;;19.97;60.17
50790;BME280;37287;47.554;7.844;2022-08-16T21:40:55;97124.22;;;20.01;59.57
50790;BME280;37287;47.554;7.844;2022-08-16T21:43:22;97132.00;;;20.03;59.36
50790;BME280;37287;47.554;7.844;2022-08-16T21:45:48;97132.00;;;20.03;59.05
50790;BME280;37287;47.554;7.844;2022-08-16T21:48:20;97133.69;;;20.00;58.65
50790;BME280;37287;47.554;7.844;2022-08-16T21:51:05;97125.91;;;19.99;58.44
50790;BME280;37287;47.554;7.844;2022-08-16T21:53:32;97124.69;;;20.00;57.82
50790;BME280;37287;47.554;7.844;2022-08-16T21:55:59;97123.94;;;19.99;57.91
50790;BME280;37287;47.554;7.844;2022-08-16T21:58:27;97136.75;;;20.02;59.14
50790;BME280;37287;47.554;7.844;2022-08-16T22:00:54;97134.47;;;20.01;59.06
50790;BME280;37287;47.554;7.844;2022-08-16T22:03:20;97140.41;;;19.99;59.61
50790;BME280;37287;47.554;7.844;2022-08-16T22:05:49;97135.50;;;19.94;61.08
50790;BME280;37287;47.554;7.844;2022-08-16T22:08:35;97137.78;;;19.86;61.22
50790;BME280;37287;47.554;7.844;2022-08-16T22:11:15;97134.53;;;19.79;61.95
50790;BME280;37287;47.554;7.844;2022-08-16T22:13:42;97135.59;;;19.72;62.16
50790;BME280;37287;47.554;7.844;2022-08-16T22:16:16;97138.06;;;19.70;62.63
50790;BME280;37287;47.554;7.844;2022-08-16T22:18:43;97133.00;;;19.68;62.78
50790;BME280;37287;47.554;7.844;2022-08-16T22:21:17;97139.09;;;19.63;61.44
50790;BME280;37287;47.554;7.844;2022-08-16T22:23:44;97130.84;;;19.63;62.41
50790;BME280;37287;47.554;7.844;2022-08-16T22:26:20;97134.03;;;19.52;62.23
50790;BME280;37287;47.554;7.844;2022-08-16T22:28:56;97126.88;;;19.46;62.68
50790;BME280;37287;47.554;7.844;2022-08-16T22:31:23;97124.13;;;19.46;62.89
50790;BME280;37287;47.554;7.844;2022-08-16T22:33:50;97122.00;;;19.50;63.16
50790;BME280;37287;47.554;7.844;2022-08-16T22:36:17;97123.22;;;19.49;62.61
50790;BME280;37287;47.554;7.844;2022-08-16T22:38:43;97122.28;;;19.52;62.31
50790;BME280;37287;47.554;7.844;2022-08-16T22:41:22;97122.28;;;19.52;61.20
50790;BME280;37287;47.554;7.844;2022-08-16T22:43:48;97110.41;;;19.55;60.87
50790;BME280;37287;47.554;7.844;2022-08-16T22:46:15;97107.66;;;19.55;61.45
50790;BME280;37287;47.554;7.844;2022-08-16T22:48:41;97108.28;;;19.50;61.75
50790;BME280;37287;47.554;7.844;2022-08-16T22:51:08;97102.63;;;19.44;62.31
50790;BME280;37287;47.554;7.844;2022-08-16T22:53:34;97100.31;;;19.42;62.10
50790;BME280;37287;47.554;7.844;2022-08-16T22:56:03;97105.78;;;19.42;62.44
50790;BME280;37287;47.554;7.844;2022-08-16T22:58:29;97110.06;;;19.44;62.39
